If you wish to contribute or participate in the discussions about articles you are invited to join SKYbrary as a registered user

 Actions

Metlakatla Seaplane Base

From SKYbrary Wiki

PAMM
Airport
ICAO: PAMM – IATA: MTM
Summary
Name Metlakatla Seaplane Base
Region North America
Territory Alaska US.gif
Location , Alaska
Serving Metakatla
Type seaplane base
Coordinates 55° 7' 52.00" N, 131° 34' 41.00" W
Runways
Designator Length Width Surface ROPS
E/W 1524 m5,000 ft
1524 m5,000 ft
WATER /
N/S 1524 m5,000 ft
1524 m5,000 ft
WATER /


METAR
Observation PAMM 160556Z AUTO 00000KT 9SM CLR 11/10 A2972 RMK AO2 SLP055 T01060100 10144 20106 50001 $
Station Metlakatla, Metlakatla Seaplane Base
Date/Time 16 September 2019 05:56:00
Wind direction
Wind speed 00 kts
Lowest cloud amount n/a
Temperature 10.6°C
Dew point 10°C
Humidity 96%
QNH hPa
Weather condition n/a